Time;durP1;ratioP1;P1;durP2;ratioP2;P2;SDS_P1;SDS_P2;PMS_P1;PMS_P2;Temp;Humidity;BMP_temperature;BMP_pressure;BME280_temperature;BME280_humidity;BME280_pressure;Samples;Min_cycle;Max_cycle;Signal;HPM_P1;HPM_P2
2021/07/19 00:00:10;;;;;;;5.13;3.40;;;20.80;99.90;;;;;;4915936;29;20462;-73
2021/07/19 00:02:36;;;;;;;4.07;3.20;;;20.80;99.90;;;;;;4916285;29;20458;-73
2021/07/19 00:05:04;;;;;;;3.60;3.30;;;20.70;99.90;;;;;;4914293;29;20497;-73
2021/07/19 00:07:31;;;;;;;4.00;3.60;;;20.60;99.90;;;;;;4914900;29;20458;-73
2021/07/19 00:09:57;;;;;;;6.50;3.70;;;20.60;99.90;;;;;;4913833;29;20490;-73
2021/07/19 00:12:26;;;;;;;4.57;4.00;;;20.60;99.90;;;;;;4911811;29;20497;-73
2021/07/19 00:14:53;;;;;;;3.67;2.90;;;20.50;99.90;;;;;;4911359;29;20458;-73
2021/07/19 00:17:20;;;;;;;6.50;3.77;;;20.40;99.90;;;;;;4909818;29;20482;-73
2021/07/19 00:19:49;;;;;;;7.97;4.03;;;20.40;99.90;;;;;;4912722;29;20462;-73
2021/07/19 00:22:16;;;;;;;4.90;3.50;;;20.30;99.90;;;;;;4912315;29;20465;-73
2021/07/19 00:24:43;;;;;;;4.53;3.07;;;20.30;99.90;;;;;;4912694;29;20530;-73
2021/07/19 00:27:09;;;;;;;5.70;3.90;;;20.20;99.90;;;;;;4912266;29;20904;-73
2021/07/19 00:29:38;;;;;;;5.27;4.40;;;20.20;99.90;;;;;;4912386;29;20469;-73
2021/07/19 00:32:08;;;;;;;4.30;3.53;;;20.20;99.90;;;;;;4909698;29;20457;-73
2021/07/19 00:34:36;;;;;;;6.63;3.43;;;20.20;99.90;;;;;;4906782;29;20442;-73
2021/07/19 00:37:04;;;;;;;8.73;4.37;;;20.20;99.90;;;;;;4905741;29;20482;-72
2021/07/19 00:39:31;;;;;;;4.70;3.77;;;20.10;99.90;;;;;;4907095;29;20502;-72
2021/07/19 00:41:58;;;;;;;7.43;4.17;;;20.00;99.90;;;;;;4908189;29;20469;-72
2021/07/19 00:44:24;;;;;;;7.20;3.93;;;19.90;99.90;;;;;;4907794;29;20463;-73
2021/07/19 00:46:56;;;;;;;5.83;4.43;;;20.00;99.90;;;;;;4904728;29;20466;-73
2021/07/19 00:49:25;;;;;;;8.43;4.50;;;19.90;99.90;;;;;;4904704;29;20446;-74
2021/07/19 00:51:52;;;;;;;5.60;4.50;;;19.80;99.90;;;;;;4904126;29;20514;-75
2021/07/19 00:54:21;;;;;;;5.70;4.30;;;19.80;99.90;;;;;;4904638;29;20485;-74
2021/07/19 00:56:50;;;;;;;4.83;4.23;;;19.80;99.90;;;;;;4905717;29;20919;-74
2021/07/19 00:59:18;;;;;;;6.13;4.60;;;19.70;99.90;;;;;;4904729;29;20482;-76
2021/07/19 01:01:48;;;;;;;7.47;4.50;;;19.70;99.90;;;;;;4905544;29;20466;-76
2021/07/19 01:04:19;;;;;;;8.77;4.70;;;19.70;99.90;;;;;;4905905;29;20530;-75
2021/07/19 01:06:49;;;;;;;6.60;4.73;;;19.60;99.90;;;;;;4908109;29;20537;-76
2021/07/19 01:09:16;;;;;;;6.10;4.40;;;19.60;99.90;;;;;;4908491;29;20477;-76
2021/07/19 01:11:43;;;;;;;9.20;5.40;;;19.50;99.90;;;;;;4906615;29;20501;-75
2021/07/19 01:14:09;;;;;;;9.10;4.37;;;19.40;99.90;;;;;;4905097;29;20477;-75
2021/07/19 01:16:40;;;;;;;7.60;4.60;;;19.30;99.90;;;;;;4906081;29;20470;-75
2021/07/19 01:19:08;;;;;;;6.70;4.30;;;19.20;99.90;;;;;;4904208;29;20481;-76
2021/07/19 01:22:03;;;;;;;11.57;5.33;;;19.20;99.90;;;;;;4904681;29;20479;-75
2021/07/19 01:24:39;;;;;;;8.43;4.37;;;19.20;99.90;;;;;;4904134;29;20451;-75
2021/07/19 01:27:46;;;;;;;6.10;4.57;;;19.20;99.90;;;;;;4903088;29;20461;-75
2021/07/19 01:30:14;;;;;;;7.70;5.07;;;19.10;99.90;;;;;;4903089;29;20462;-76
2021/07/19 01:32:49;;;;;;;5.83;4.90;;;19.10;99.90;;;;;;4903274;29;20799;-74
2021/07/19 01:35:16;;;;;;;14.00;5.50;;;19.10;99.90;;;;;;4903836;29;20453;-74
2021/07/19 01:37:46;;;;;;;11.90;5.47;;;19.10;99.90;;;;;;4902606;29;20477;-74
2021/07/19 01:40:13;;;;;;;7.07;5.83;;;19.10;99.90;;;;;;4903247;29;20470;-73
2021/07/19 01:42:41;;;;;;;5.70;5.00;;;19.00;99.90;;;;;;4902598;29;20458;-74
2021/07/19 01:45:10;;;;;;;8.40;5.10;;;18.90;99.90;;;;;;4901931;29;20799;-74
2021/07/19 01:47:39;;;;;;;7.87;5.50;;;18.90;99.90;;;;;;4902286;29;20493;-74
2021/07/19 01:50:08;;;;;;;10.83;5.70;;;18.80;99.90;;;;;;4902764;29;20473;-74
2021/07/19 01:52:35;;;;;;;9.07;5.27;;;18.80;99.90;;;;;;4901704;29;20493;-74
2021/07/19 01:55:03;;;;;;;8.93;5.93;;;18.70;99.90;;;;;;4904405;29;20473;-76
2021/07/19 01:57:31;;;;;;;6.43;4.90;;;18.70;99.90;;;;;;4902421;29;20466;-75
2021/07/19 02:00:00;;;;;;;6.30;5.03;;;18.70;99.90;;;;;;4905682;29;20458;-76
2021/07/19 02:02:28;;;;;;;7.83;5.63;;;18.60;99.90;;;;;;4906523;29;20494;-75
2021/07/19 02:04:56;;;;;;;6.27;5.53;;;18.60;99.90;;;;;;4901394;29;20458;-76
2021/07/19 02:07:26;;;;;;;8.27;5.43;;;18.50;99.90;;;;;;4901371;29;20458;-76
2021/07/19 02:09:53;;;;;;;8.20;5.77;;;18.40;99.90;;;;;;4901126;29;20513;-76
2021/07/19 02:12:21;;;;;;;8.03;5.77;;;18.30;99.90;;;;;;4900935;29;20489;-76
2021/07/19 02:14:48;;;;;;;10.00;5.80;;;18.30;99.90;;;;;;4902336;29;20473;-76
2021/07/19 02:17:17;;;;;;;9.83;6.07;;;18.30;99.90;;;;;;4901707;29;20466;-76
2021/07/19 02:19:48;;;;;;;8.33;5.20;;;18.20;99.90;;;;;;4902420;29;20536;-75
2021/07/19 02:22:18;;;;;;;9.60;5.70;;;18.20;99.90;;;;;;4901307;29;20442;-76
2021/07/19 02:24:47;;;;;;;7.67;5.40;;;18.10;99.90;;;;;;4901327;29;20466;-76
2021/07/19 02:27:15;;;;;;;11.17;5.90;;;18.00;99.90;;;;;;4901350;29;20466;-76
2021/07/19 02:29:42;;;;;;;7.70;5.53;;;18.00;99.90;;;;;;4900906;29;20467;-76
2021/07/19 02:32:09;;;;;;;8.50;5.03;;;18.00;99.90;;;;;;4900967;29;20466;-76
2021/07/19 02:34:38;;;;;;;10.33;4.80;;;18.00;99.90;;;;;;4900790;29;20801;-76
2021/07/19 02:37:06;;;;;;;7.00;5.13;;;18.00;99.90;;;;;;4901061;29;20466;-76
2021/07/19 02:39:40;;;;;;;7.33;4.57;;;17.90;99.90;;;;;;4901012;29;20501;-76
2021/07/19 02:42:07;;;;;;;8.23;4.83;;;17.80;99.90;;;;;;4900941;29;20446;-76
2021/07/19 02:44:34;;;;;;;6.50;4.87;;;17.80;99.90;;;;;;4900898;29;20476;-76
2021/07/19 02:47:02;;;;;;;7.77;4.77;;;17.70;99.90;;;;;;4903283;29;20488;-76
2021/07/19 02:49:31;;;;;;;10.17;4.73;;;17.70;99.90;;;;;;4901430;29;20793;-75
2021/07/19 02:51:58;;;;;;;7.70;4.27;;;17.70;99.90;;;;;;4902357;29;20466;-76
2021/07/19 02:54:26;;;;;;;6.67;3.93;;;17.60;99.90;;;;;;4902171;29;20466;-76
2021/07/19 02:56:55;;;;;;;12.40;4.93;;;17.60;99.90;;;;;;4900995;29;20467;-76
2021/07/19 02:59:22;;;;;;;8.80;4.70;;;17.50;99.90;;;;;;4901255;29;20490;-76
2021/07/19 03:01:53;;;;;;;6.50;4.43;;;17.50;99.90;;;;;;4901144;29;20485;-77
2021/07/19 03:04:21;;;;;;;7.03;4.80;;;17.40;99.90;;;;;;4900428;29;20549;-75
2021/07/19 03:06:49;;;;;;;10.87;4.90;;;17.30;99.90;;;;;;4900436;29;20615;-75
2021/07/19 03:09:18;;;;;;;9.47;4.47;;;17.30;99.90;;;;;;4900440;29;20533;-75
2021/07/19 03:11:48;;;;;;;8.87;4.57;;;17.20;99.90;;;;;;4899643;29;20498;-75
2021/07/19 03:14:23;;;;;;;7.67;4.80;;;17.20;99.90;;;;;;4900642;29;20474;-75
2021/07/19 03:16:53;;;;;;;8.70;4.80;;;17.20;99.90;;;;;;4901376;29;20445;-75
2021/07/19 03:19:20;;;;;;;6.40;4.37;;;17.20;99.90;;;;;;4900757;29;20489;-74
2021/07/19 03:21:49;;;;;;;15.27;5.73;;;17.20;99.90;;;;;;4901200;29;20511;-74
2021/07/19 03:24:24;;;;;;;10.50;4.47;;;17.10;99.90;;;;;;4901459;29;20471;-75
2021/07/19 03:26:54;;;;;;;8.37;4.60;;;16.90;99.90;;;;;;4900518;29;20505;-75
2021/07/19 03:29:24;;;;;;;7.30;4.70;;;16.80;99.90;;;;;;4901069;29;20485;-76
2021/07/19 03:31:52;;;;;;;10.33;4.60;;;16.70;99.90;;;;;;4902364;29;20526;-76
2021/07/19 03:34:22;;;;;;;12.50;4.53;;;16.70;99.90;;;;;;4901675;29;20776;-77
2021/07/19 03:36:52;;;;;;;9.57;4.93;;;16.70;99.90;;;;;;4902572;29;20599;-76
2021/07/19 03:39:20;;;;;;;7.53;4.20;;;16.80;99.90;;;;;;4902108;29;20501;-77
2021/07/19 03:41:50;;;;;;;7.87;4.10;;;16.80;99.90;;;;;;4901982;29;20859;-76
2021/07/19 03:44:18;;;;;;;7.60;4.40;;;16.80;99.90;;;;;;4901330;29;20470;-76
2021/07/19 03:46:46;;;;;;;11.60;4.37;;;16.70;99.90;;;;;;4901019;29;20530;-76
2021/07/19 03:49:14;;;;;;;13.80;5.03;;;16.70;99.90;;;;;;4901181;29;20462;-77
2021/07/19 03:51:43;;;;;;;8.50;4.10;;;16.60;99.90;;;;;;4900944;29;20923;-75
2021/07/19 03:54:10;;;;;;;10.37;4.63;;;16.50;99.90;;;;;;4900620;29;20775;-76
2021/07/19 03:56:38;;;;;;;11.57;5.07;;;16.50;99.90;;;;;;4900605;29;20466;-76
2021/07/19 03:59:05;;;;;;;11.33;4.60;;;16.40;99.90;;;;;;4900033;29;20493;-76
2021/07/19 04:01:35;;;;;;;18.13;4.80;;;16.40;99.90;;;;;;4901355;29;20474;-76
2021/07/19 04:04:07;;;;;;;11.13;4.33;;;16.30;99.90;;;;;;4900787;29;20451;-76
2021/07/19 04:06:34;;;;;;;8.80;4.23;;;16.40;99.90;;;;;;4899660;29;20514;-77
2021/07/19 04:09:01;;;;;;;6.90;4.13;;;16.50;99.90;;;;;;4902724;29;20935;-76
2021/07/19 04:11:29;;;;;;;9.50;4.60;;;16.60;99.90;;;;;;4903746;29;20490;-74
2021/07/19 04:13:56;;;;;;;7.83;3.80;;;16.60;99.90;;;;;;4903821;29;20473;-75
2021/07/19 04:16:23;;;;;;;9.67;4.83;;;16.70;99.90;;;;;;4905549;29;20477;-75
2021/07/19 04:18:51;;;;;;;13.03;4.83;;;16.60;99.90;;;;;;4907351;29;20490;-75
2021/07/19 04:21:21;;;;;;;8.03;4.03;;;16.60;99.90;;;;;;4907004;29;20465;-75
2021/07/19 04:23:48;;;;;;;11.63;4.23;;;16.60;99.90;;;;;;4904243;29;20790;-76
2021/07/19 04:26:16;;;;;;;11.03;4.67;;;16.60;99.90;;;;;;4903036;29;20465;-76
2021/07/19 04:28:45;;;;;;;7.67;3.90;;;16.60;99.90;;;;;;4903256;29;20470;-75
2021/07/19 04:31:16;;;;;;;12.27;4.20;;;16.60;99.90;;;;;;4904037;29;20490;-74
2021/07/19 04:33:45;;;;;;;5.73;3.50;;;16.60;99.90;;;;;;4904440;29;20486;-74
2021/07/19 04:36:11;;;;;;;10.30;5.20;;;16.60;99.90;;;;;;4904195;29;20462;-75
2021/07/19 04:38:40;;;;;;;15.80;4.50;;;16.70;99.90;;;;;;4903573;29;20848;-75
2021/07/19 04:41:07;;;;;;;12.90;3.93;;;16.70;99.90;;;;;;4903013;29;20467;-73
2021/07/19 04:43:33;;;;;;;13.07;4.80;;;16.80;99.90;;;;;;4902842;29;20526;-74
2021/07/19 04:46:01;;;;;;;7.33;3.43;;;16.80;99.90;;;;;;4902981;29;20473;-74
2021/07/19 04:48:29;;;;;;;9.00;4.23;;;16.90;99.90;;;;;;4902722;29;20513;-74
2021/07/19 04:50:55;;;;;;;13.23;5.00;;;16.90;99.90;;;;;;4903056;29;20526;-74
2021/07/19 04:53:22;;;;;;;8.77;3.93;;;16.90;99.90;;;;;;4902369;29;20466;-74
2021/07/19 04:55:53;;;;;;;7.60;3.83;;;16.90;99.90;;;;;;4902719;29;20466;-76
2021/07/19 04:58:23;;;;;;;10.30;4.40;;;16.90;99.90;;;;;;4903033;29;20461;-76
2021/07/19 05:00:59;;;;;;;13.53;7.80;;;16.90;99.90;;;;;;4902337;29;20501;-75
2021/07/19 05:03:28;;;;;;;11.03;4.47;;;16.90;99.90;;;;;;4902107;29;20453;-75
2021/07/19 05:05:58;;;;;;;9.83;3.80;;;16.80;99.90;;;;;;4902154;29;20470;-74
2021/07/19 05:08:27;;;;;;;10.60;4.00;;;16.80;99.90;;;;;;4901928;29;20478;-75
2021/07/19 05:10:55;;;;;;;14.40;4.20;;;16.70;99.90;;;;;;4901845;29;20509;-74
2021/07/19 05:13:22;;;;;;;9.17;4.10;;;16.60;99.90;;;;;;4901910;29;20473;-75
2021/07/19 05:15:49;;;;;;;8.60;4.20;;;16.60;99.90;;;;;;4901295;29;20462;-74
2021/07/19 05:18:17;;;;;;;9.37;5.13;;;16.60;99.90;;;;;;4901777;29;20791;-74
2021/07/19 05:20:49;;;;;;;8.93;4.37;;;16.70;99.90;;;;;;4901168;29;20518;-74
2021/07/19 05:23:21;;;;;;;9.03;3.97;;;16.70;99.90;;;;;;4901661;29;21011;-74
2021/07/19 05:25:48;;;;;;;11.70;4.20;;;16.80;99.90;;;;;;4902178;29;20446;-74
2021/07/19 05:28:16;;;;;;;7.40;4.20;;;16.90;99.90;;;;;;4901437;29;20919;-73
2021/07/19 05:30:46;;;;;;;10.63;4.50;;;17.00;99.90;;;;;;4901962;29;20802;-75
2021/07/19 05:33:20;;;;;;;6.80;3.90;;;17.00;99.90;;;;;;4901857;29;20533;-75
2021/07/19 05:35:46;;;;;;;7.70;4.40;;;17.10;99.90;;;;;;4901508;29;20455;-76
2021/07/19 05:38:14;;;;;;;7.10;4.13;;;17.10;99.90;;;;;;4901445;29;20466;-76
2021/07/19 05:40:44;;;;;;;9.50;4.57;;;17.20;99.90;;;;;;4901463;29;20490;-76
2021/07/19 05:43:11;;;;;;;11.73;5.00;;;17.30;99.90;;;;;;4901606;29;20454;-76
2021/07/19 05:45:39;;;;;;;9.40;3.60;;;17.30;1.00;;;;;;4901503;29;20466;-76
2021/07/19 05:48:07;;;;;;;6.60;3.80;;;17.30;1.00;;;;;;4901329;29;20466;-75
2021/07/19 05:50:34;;;;;;;5.50;4.30;;;17.20;1.00;;;;;;4901089;29;20919;-76
2021/07/19 05:53:01;;;;;;;11.93;4.10;;;17.20;1.00;;;;;;4900943;29;20466;-77
2021/07/19 05:55:29;;;;;;;10.70;4.70;;;17.20;1.00;;;;;;4901417;29;20799;-75
2021/07/19 05:57:59;;;;;;;10.23;5.43;;;17.20;1.00;;;;;;4901358;29;20471;-76
2021/07/19 06:00:26;;;;;;;9.27;5.53;;;17.30;1.00;;;;;;4900955;29;20533;-75
2021/07/19 06:02:54;;;;;;;7.83;4.13;;;17.30;1.00;;;;;;4901106;29;20470;-75
2021/07/19 06:05:21;;;;;;;11.93;4.70;;;17.20;1.00;;;;;;4901758;29;20806;-74
2021/07/19 06:07:47;;;;;;;8.50;4.60;;;17.20;1.00;;;;;;4901160;29;20525;-76
2021/07/19 06:10:16;;;;;;;12.40;5.17;;;17.20;1.00;;;;;;4901450;29;20463;-75
2021/07/19 06:12:44;;;;;;;7.90;4.43;;;17.30;1.00;;;;;;4901190;29;20462;-75
2021/07/19 06:15:13;;;;;;;12.30;4.20;;;17.30;1.00;;;;;;4901383;29;20474;-75
2021/07/19 06:17:40;;;;;;;9.00;5.30;;;17.30;1.00;;;;;;4902000;29;20470;-76
2021/07/19 06:20:12;;;;;;;8.23;5.20;;;17.30;1.00;;;;;;4902590;29;20486;-75
2021/07/19 06:22:39;;;;;;;7.20;3.93;;;17.30;1.00;;;;;;4902072;29;20451;-76
2021/07/19 06:25:07;;;;;;;12.50;5.10;;;17.30;1.00;;;;;;4900830;29;20474;-75
2021/07/19 06:27:34;;;;;;;9.67;5.27;;;17.30;1.00;;;;;;4900864;29;20473;-75
2021/07/19 06:30:01;;;;;;;10.67;4.73;;;17.50;99.90;;;;;;4901048;29;20543;-74
2021/07/19 06:32:28;;;;;;;6.97;4.63;;;17.50;1.00;;;;;;4900968;29;20477;-74
2021/07/19 06:34:54;;;;;;;8.00;4.73;;;17.60;1.00;;;;;;4900718;29;20833;-74
2021/07/19 06:37:22;;;;;;;10.53;4.47;;;17.70;1.00;;;;;;4900637;29;20494;-74
2021/07/19 06:39:49;;;;;;;7.83;4.60;;;17.80;99.90;;;;;;4900514;29;20497;-74
2021/07/19 06:42:16;;;;;;;10.47;4.67;;;17.90;99.90;;;;;;4900977;29;20481;-73
2021/07/19 06:44:43;;;;;;;8.30;5.00;;;18.00;99.90;;;;;;4900275;29;20898;-74
2021/07/19 06:47:10;;;;;;;8.67;5.23;;;18.20;99.90;;;;;;4900332;29;20462;-73
2021/07/19 06:49:40;;;;;;;12.73;6.50;;;18.30;99.90;;;;;;4900059;29;20470;-74
2021/07/19 06:52:07;;;;;;;7.50;5.07;;;18.40;99.90;;;;;;4900167;29;20455;-74
2021/07/19 06:54:35;;;;;;;8.67;6.10;;;18.50;99.90;;;;;;4900060;29;20530;-73
2021/07/19 06:57:01;;;;;;;11.87;6.17;;;18.60;1.00;;;;;;4900007;29;20462;-73
2021/07/19 06:59:28;;;;;;;12.97;5.63;;;18.70;1.00;;;;;;4899921;29;20490;-73
2021/07/19 07:01:55;;;;;;;8.53;6.30;;;18.80;1.00;;;;;;4899690;29;20538;-73
2021/07/19 07:04:22;;;;;;;14.23;5.97;;;18.80;99.90;;;;;;4899677;29;20773;-74
2021/07/19 07:06:48;;;;;;;8.20;5.23;;;18.60;99.90;;;;;;4899894;29;20462;-74
2021/07/19 07:09:15;;;;;;;10.87;5.30;;;18.50;99.90;;;;;;4900541;29;20465;-74
2021/07/19 07:11:43;;;;;;;8.33;4.70;;;18.50;99.90;;;;;;4899406;29;20601;-73
2021/07/19 07:14:10;;;;;;;12.87;5.00;;;18.60;99.90;;;;;;4900212;29;20462;-74
2021/07/19 07:16:37;;;;;;;7.23;5.20;;;18.60;99.90;;;;;;4900095;29;20800;-74
2021/07/19 07:19:04;;;;;;;10.63;6.37;;;18.80;99.90;;;;;;4900202;29;20945;-73
2021/07/19 07:21:31;;;;;;;9.40;5.90;;;18.80;99.90;;;;;;4899868;29;20498;-74
2021/07/19 07:23:58;;;;;;;7.90;5.23;;;18.70;99.90;;;;;;4899650;29;20774;-74
2021/07/19 07:26:26;;;;;;;8.43;5.40;;;18.60;99.90;;;;;;4900295;29;20877;-74
2021/07/19 07:28:54;;;;;;;11.20;6.27;;;18.60;99.90;;;;;;4901952;29;20557;-74
2021/07/19 07:31:25;;;;;;;10.33;5.90;;;18.60;99.90;;;;;;4900863;29;20481;-74
2021/07/19 07:33:52;;;;;;;8.60;5.10;;;18.60;99.90;;;;;;4900455;29;20505;-74
2021/07/19 07:36:19;;;;;;;9.87;6.23;;;18.60;99.90;;;;;;4900193;29;20470;-74
2021/07/19 07:38:46;;;;;;;11.17;5.10;;;18.50;99.90;;;;;;4899608;29;20498;-74
2021/07/19 07:41:12;;;;;;;10.50;5.60;;;18.50;99.90;;;;;;4899086;29;20557;-74
2021/07/19 07:43:39;;;;;;;8.50;5.90;;;18.50;99.90;;;;;;4901640;29;20466;-74
2021/07/19 07:46:07;;;;;;;11.50;5.70;;;18.60;99.90;;;;;;4903159;29;20473;-74
2021/07/19 07:48:35;;;;;;;10.87;6.40;;;18.70;99.90;;;;;;4902840;29;20466;-74
2021/07/19 07:51:03;;;;;;;8.77;6.43;;;18.70;99.90;;;;;;4903641;29;20776;-74
2021/07/19 07:53:31;;;;;;;6.90;5.17;;;18.80;99.90;;;;;;4903609;29;20561;-75
2021/07/19 07:55:58;;;;;;;8.70;5.97;;;18.80;99.90;;;;;;4903615;29;20874;-75
2021/07/19 07:58:25;;;;;;;8.40;6.00;;;18.90;47.60;;;;;;4903475;29;20494;-75
2021/07/19 08:00:52;;;;;;;9.80;5.33;;;19.10;1.00;;;;;;4903539;29;20482;-75
2021/07/19 08:03:21;;;;;;;8.40;5.23;;;19.10;1.00;;;;;;4904524;29;20478;-75
2021/07/19 08:05:48;;;;;;;8.10;6.07;;;19.20;1.00;;;;;;4902813;29;20469;-75
2021/07/19 08:08:15;;;;;;;8.97;4.77;;;19.30;1.00;;;;;;4903686;29;20787;-74
2021/07/19 08:10:42;;;;;;;12.93;6.00;;;19.30;1.00;;;;;;4902746;29;20486;-75
2021/07/19 08:13:09;;;;;;;9.60;5.70;;;19.10;1.00;;;;;;4903421;29;20486;-75
2021/07/19 08:15:37;;;;;;;10.70;5.70;;;18.90;1.00;;;;;;4903478;29;20472;-76
2021/07/19 08:18:04;;;;;;;7.63;5.30;;;18.90;1.00;;;;;;4903564;29;20563;-76
2021/07/19 08:20:32;;;;;;;8.57;5.10;;;19.00;1.00;;;;;;4903007;29;20494;-75
2021/07/19 08:22:59;;;;;;;8.63;5.93;;;19.00;1.00;;;;;;4902650;29;20939;-75
2021/07/19 08:25:26;;;;;;;9.10;6.27;;;19.00;1.00;;;;;;4902536;29;20474;-74
2021/07/19 08:27:53;;;;;;;9.17;5.60;;;19.00;1.00;;;;;;4902700;29;20543;-74
2021/07/19 08:30:19;;;;;;;11.77;5.60;;;19.00;1.00;;;;;;4902861;29;20525;-74
2021/07/19 08:32:46;;;;;;;11.60;5.93;;;19.00;1.00;;;;;;4902781;29;20476;-73
2021/07/19 08:35:14;;;;;;;10.50;5.60;;;19.10;1.00;;;;;;4902517;29;20763;-73
2021/07/19 08:37:45;;;;;;;8.10;5.60;;;19.10;1.00;;;;;;4903082;29;20462;-76
2021/07/19 08:40:14;;;;;;;7.63;5.30;;;19.20;1.00;;;;;;4902464;29;20482;-74
2021/07/19 08:42:41;;;;;;;9.27;5.07;;;19.30;1.00;;;;;;4902746;29;20470;-76
2021/07/19 08:45:10;;;;;;;7.83;5.23;;;19.40;1.00;;;;;;4902663;29;20472;-75
2021/07/19 08:47:38;;;;;;;7.33;5.33;;;19.50;1.00;;;;;;4902865;29;20473;-74
2021/07/19 08:50:06;;;;;;;8.60;5.20;;;19.60;1.00;;;;;;4903408;29;20468;-74
2021/07/19 08:52:34;;;;;;;10.80;5.30;;;19.60;1.00;;;;;;4903295;29;20462;-76
2021/07/19 08:55:04;;;;;;;7.07;5.00;;;19.70;1.00;;;;;;4901802;29;20802;-74
2021/07/19 08:57:31;;;;;;;6.60;5.00;;;19.70;1.00;;;;;;4902601;29;20454;-74
2021/07/19 09:00:01;;;;;;;8.80;5.50;;;19.70;1.00;;;;;;4902206;29;20919;-75
2021/07/19 09:02:30;;;;;;;5.67;4.60;;;19.70;1.00;;;;;;4902577;29;20466;-74
2021/07/19 09:04:57;;;;;;;9.20;5.70;;;19.60;1.00;;;;;;4902736;29;20466;-74
2021/07/19 09:07:25;;;;;;;8.00;4.60;;;19.40;1.00;;;;;;4902496;29;20466;-75
2021/07/19 09:09:52;;;;;;;7.40;4.93;;;19.30;1.00;;;;;;4902060;29;20533;-75
2021/07/19 09:12:30;;;;;;;9.03;5.17;;;19.30;1.00;;;;;;4902075;29;20501;-75
2021/07/19 09:14:57;;;;;;;6.50;4.93;;;19.30;1.00;;;;;;4902724;29;20844;-75
2021/07/19 09:17:25;;;;;;;7.50;4.93;;;19.30;1.00;;;;;;4902260;29;20470;-74
2021/07/19 09:19:52;;;;;;;9.00;4.73;;;19.40;1.00;;;;;;4902166;29;20474;-74
2021/07/19 09:22:24;;;;;;;7.37;4.57;;;19.50;1.00;;;;;;4902295;29;20462;-74
2021/07/19 09:24:51;;;;;;;7.23;4.60;;;19.60;1.00;;;;;;4902123;29;20450;-74
2021/07/19 09:27:23;;;;;;;6.63;4.97;;;19.60;1.00;;;;;;4902117;29;20465;-75
2021/07/19 09:29:50;;;;;;;8.03;4.93;;;19.60;1.00;;;;;;4902555;29;20831;-75
2021/07/19 09:32:17;;;;;;;9.63;4.83;;;19.70;1.00;;;;;;4901867;29;20779;-72
2021/07/19 09:34:44;;;;;;;8.70;4.40;;;19.70;1.00;;;;;;4902011;29;20566;-76
2021/07/19 09:37:13;;;;;;;8.50;4.70;;;19.70;1.00;;;;;;4901660;29;20470;-74
2021/07/19 09:39:43;;;;;;;8.47;4.50;;;19.70;1.00;;;;;;4901269;29;20540;-74
2021/07/19 09:42:13;;;;;;;8.13;5.03;;;19.80;1.00;;;;;;4901271;29;20470;-74
2021/07/19 09:44:43;;;;;;;7.13;4.63;;;19.80;99.90;;;;;;4901742;29;20526;-73
2021/07/19 09:47:12;;;;;;;7.27;4.70;;;19.80;1.00;;;;;;4901454;29;20462;-73
2021/07/19 09:49:40;;;;;;;6.60;5.10;;;19.90;1.00;;;;;;4901145;29;20462;-74
2021/07/19 09:52:09;;;;;;;6.20;4.10;;;20.20;1.00;;;;;;4901044;29;20470;-76
2021/07/19 09:54:39;;;;;;;7.80;4.60;;;20.30;99.90;;;;;;4901434;29;20791;-74
2021/07/19 09:57:06;;;;;;;6.57;4.77;;;20.40;99.90;;;;;;4900559;29;20446;-75
2021/07/19 09:59:34;;;;;;;7.40;4.90;;;20.50;99.90;;;;;;4901972;29;20465;-73
2021/07/19 10:02:02;;;;;;;5.63;4.47;;;20.60;99.90;;;;;;4901264;29;20569;-74
2021/07/19 10:04:29;;;;;;;9.13;5.07;;;20.70;99.90;;;;;;4901222;29;20473;-74
2021/07/19 10:06:58;;;;;;;6.20;4.17;;;20.80;99.90;;;;;;4900666;29;20466;-73
2021/07/19 10:09:25;;;;;;;6.73;4.13;;;20.80;99.90;;;;;;4901149;29;20462;-73
2021/07/19 10:11:54;;;;;;;5.30;4.00;;;20.70;99.90;;;;;;4900331;29;20627;-74
2021/07/19 10:14:26;;;;;;;6.00;4.40;;;20.70;99.90;;;;;;4901134;29;20555;-75
2021/07/19 10:16:54;;;;;;;4.80;4.13;;;20.60;99.90;;;;;;4900585;29;20498;-74
2021/07/19 10:19:23;;;;;;;7.83;4.70;;;20.40;99.90;;;;;;4902357;29;20498;-74
2021/07/19 10:21:50;;;;;;;8.87;4.57;;;20.20;99.90;;;;;;4900858;29;20486;-73
2021/07/19 10:24:17;;;;;;;4.40;4.00;;;20.10;99.90;;;;;;4901181;29;20494;-73
2021/07/19 10:26:45;;;;;;;7.47;4.80;;;20.00;99.90;;;;;;4900742;29;20549;-73
2021/07/19 10:29:13;;;;;;;12.77;4.83;;;19.90;99.90;;;;;;4900845;29;20816;-74
2021/07/19 10:31:40;;;;;;;6.00;5.07;;;19.90;99.90;;;;;;4900965;29;20502;-73
2021/07/19 10:34:08;;;;;;;7.33;4.60;;;20.00;99.90;;;;;;4900910;29;20463;-74
2021/07/19 10:36:44;;;;;;;7.83;4.23;;;20.10;99.90;;;;;;4903128;29;20477;-74
2021/07/19 10:39:16;;;;;;;9.47;4.70;;;20.20;99.90;;;;;;4901547;29;20446;-73
2021/07/19 10:41:42;;;;;;;10.77;5.13;;;20.20;99.90;;;;;;4901027;29;20594;-73
2021/07/19 10:44:12;;;;;;;7.83;4.33;;;20.40;99.90;;;;;;4903317;29;20469;-74
2021/07/19 10:46:41;;;;;;;9.63;3.90;;;20.60;99.90;;;;;;4901607;29;20801;-74
2021/07/19 10:49:10;;;;;;;9.07;4.47;;;20.80;99.90;;;;;;4904362;29;20776;-73
2021/07/19 10:51:46;;;;;;;4.07;3.60;;;20.90;99.90;;;;;;4902366;29;20481;-72
2021/07/19 10:54:19;;;;;;;7.97;4.00;;;20.90;99.90;;;;;;4900316;29;20510;-72
2021/07/19 10:56:46;;;;;;;7.77;3.43;;;20.90;99.90;;;;;;4900160;29;20569;-73
2021/07/19 10:59:28;;;;;;;7.23;3.70;;;20.80;99.90;;;;;;4900713;29;20462;-73
2021/07/19 11:01:56;;;;;;;7.77;4.00;;;20.80;99.90;;;;;;4901584;29;20492;-73
2021/07/19 11:04:23;;;;;;;7.50;3.20;;;20.80;99.90;;;;;;4901053;29;20940;-74
2021/07/19 11:06:57;;;;;;;7.17;3.93;;;20.80;99.90;;;;;;4902146;29;20526;-74
2021/07/19 11:09:37;;;;;;;5.53;3.53;;;20.70;99.90;;;;;;4902907;29;20457;-73
2021/07/19 11:12:08;;;;;;;3.67;3.10;;;20.60;99.90;;;;;;4906274;29;20517;-74
2021/07/19 11:14:43;;;;;;;5.40;3.47;;;20.50;99.90;;;;;;4905022;29;20566;-74
2021/07/19 11:17:10;;;;;;;4.67;3.43;;;20.40;99.90;;;;;;4905263;29;20779;-74
2021/07/19 11:19:39;;;;;;;4.37;3.03;;;20.40;99.90;;;;;;4904604;29;20470;-74
2021/07/19 11:22:09;;;;;;;5.27;2.80;;;20.50;99.90;;;;;;4903818;29;20549;-74
2021/07/19 11:24:44;;;;;;;4.37;2.60;;;20.50;99.90;;;;;;4905808;29;20467;-74
2021/07/19 11:27:12;;;;;;;2.90;2.60;;;20.60;99.90;;;;;;4901095;29;20461;-74
2021/07/19 11:29:40;;;;;;;2.63;2.43;;;20.70;99.90;;;;;;4901270;29;20467;-73
2021/07/19 11:32:11;;;;;;;3.63;2.97;;;20.80;99.90;;;;;;4903355;29;20759;-73
2021/07/19 11:34:38;;;;;;;7.10;2.87;;;20.90;99.90;;;;;;4902406;29;20453;-74
2021/07/19 11:37:07;;;;;;;4.10;2.87;;;21.00;99.90;;;;;;4901628;29;20466;-75
2021/07/19 11:39:45;;;;;;;3.27;2.97;;;21.20;99.90;;;;;;4900865;29;20467;-75
2021/07/19 11:42:14;;;;;;;5.73;3.00;;;21.50;99.90;;;;;;4901331;29;20496;-75
2021/07/19 11:44:41;;;;;;;3.23;2.63;;;21.70;99.90;;;;;;4903208;29;20510;-74
2021/07/19 11:47:08;;;;;;;4.00;2.90;;;21.70;99.90;;;;;;4901126;29;20466;-74
2021/07/19 11:49:35;;;;;;;3.60;2.63;;;21.60;99.90;;;;;;4903130;29;20466;-74
2021/07/19 11:52:05;;;;;;;4.17;2.80;;;21.80;99.90;;;;;;4904107;29;20533;-73
2021/07/19 11:54:34;;;;;;;4.70;2.70;;;22.10;99.90;;;;;;4911101;29;20454;-74
2021/07/19 11:57:00;;;;;;;3.17;2.87;;;22.30;99.90;;;;;;4900587;29;20466;-75
2021/07/19 11:59:28;;;;;;;4.33;2.67;;;22.70;99.90;;;;;;4901130;29;20952;-76
2021/07/19 12:01:56;;;;;;;5.13;2.83;;;23.40;99.90;;;;;;4901938;29;20868;-74
2021/07/19 12:04:24;;;;;;;8.33;3.13;;;24.10;99.90;;;;;;4901537;29;20454;-75
2021/07/19 12:06:52;;;;;;;5.27;3.03;;;24.60;68.00;;;;;;4901348;29;20473;-77
2021/07/19 12:09:19;;;;;;;4.97;2.73;;;24.70;35.70;;;;;;4900312;29;20466;-75
2021/07/19 12:11:54;;;;;;;3.50;3.07;;;24.50;26.70;;;;;;4900579;29;20481;-76
2021/07/19 12:14:21;;;;;;;5.70;3.17;;;24.20;17.10;;;;;;4912845;29;20446;-75
2021/07/19 12:16:48;;;;;;;5.20;3.40;;;23.80;18.60;;;;;;4907700;29;20462;-74
2021/07/19 12:19:18;;;;;;;4.87;2.90;;;23.50;17.90;;;;;;4900930;29;20541;-74
2021/07/19 12:21:47;;;;;;;5.10;3.40;;;23.10;17.90;;;;;;4901386;29;20792;-75
2021/07/19 12:24:15;;;;;;;5.60;3.07;;;22.70;26.90;;;;;;4900234;29;20477;-74
2021/07/19 12:26:43;;;;;;;4.43;3.87;;;22.50;29.70;;;;;;4900725;29;20791;-75
2021/07/19 12:29:14;;;;;;;7.17;3.80;;;22.20;30.00;;;;;;4900851;29;20476;-74
2021/07/19 12:31:49;;;;;;;8.10;4.20;;;22.00;33.00;;;;;;4903516;29;20795;-74
2021/07/19 12:34:17;;;;;;;5.50;4.00;;;21.80;44.20;;;;;;4903555;29;20792;-74
2021/07/19 12:36:48;;;;;;;4.43;3.87;;;21.40;64.40;;;;;;4905306;29;20469;-76
2021/07/19 12:39:16;;;;;;;5.87;3.43;;;21.30;85.30;;;;;;4904735;29;20473;-74
2021/07/19 12:41:47;;;;;;;6.13;3.53;;;21.40;90.60;;;;;;4904007;29;20552;-74
2021/07/19 12:44:15;;;;;;;6.60;3.67;;;21.50;95.80;;;;;;4903169;29;20458;-74
2021/07/19 12:46:43;;;;;;;5.77;3.67;;;21.60;84.60;;;;;;4903700;29;20470;-73
2021/07/19 12:49:11;;;;;;;5.30;3.20;;;21.70;74.00;;;;;;4904388;29;20462;-73
2021/07/19 12:51:40;;;;;;;3.90;3.43;;;21.80;64.00;;;;;;4903472;29;20742;-74
2021/07/19 12:54:08;;;;;;;7.80;3.53;;;21.90;59.00;;;;;;4903522;29;20491;-74